sensor_id;sensor_type;location;lat;lon;timestamp;temperature;humidity
60287;DHT22;46141;52.382;5.270;2022-11-04T00:00:39;19.80;80.70
60287;DHT22;46141;52.382;5.270;2022-11-04T00:03:05;19.80;80.70
60287;DHT22;46141;52.382;5.270;2022-11-04T00:05:31;19.80;80.70
60287;DHT22;46141;52.382;5.270;2022-11-04T00:07:56;19.80;80.80
60287;DHT22;46141;52.382;5.270;2022-11-04T00:10:22;19.80;80.90
60287;DHT22;46141;52.382;5.270;2022-11-04T00:12:48;19.80;80.80
60287;DHT22;46141;52.382;5.270;2022-11-04T00:15:16;19.80;80.80
60287;DHT22;46141;52.382;5.270;2022-11-04T00:17:42;19.80;81.00
60287;DHT22;46141;52.382;5.270;2022-11-04T00:20:08;19.80;81.00
60287;DHT22;46141;52.382;5.270;2022-11-04T00:22:35;19.80;81.00
60287;DHT22;46141;52.382;5.270;2022-11-04T00:25:01;19.80;81.00
60287;DHT22;46141;52.382;5.270;2022-11-04T00:28:05;19.80;81.10
60287;DHT22;46141;52.382;5.270;2022-11-04T00:30:31;19.80;81.10
60287;DHT22;46141;52.382;5.270;2022-11-04T00:32:56;19.70;81.10
60287;DHT22;46141;52.382;5.270;2022-11-04T00:35:22;19.70;81.10
60287;DHT22;46141;52.382;5.270;2022-11-04T00:37:47;19.80;81.70
60287;DHT22;46141;52.382;5.270;2022-11-04T00:40:15;19.70;81.00
60287;DHT22;46141;52.382;5.270;2022-11-04T00:42:44;19.80;81.10
60287;DHT22;46141;52.382;5.270;2022-11-04T00:45:10;19.70;81.10
60287;DHT22;46141;52.382;5.270;2022-11-04T00:47:36;19.70;81.70
60287;DHT22;46141;52.382;5.270;2022-11-04T00:50:01;19.80;81.10
60287;DHT22;46141;52.382;5.270;2022-11-04T00:52:27;19.70;81.10
60287;DHT22;46141;52.382;5.270;2022-11-04T00:54:52;19.70;81.10
60287;DHT22;46141;52.382;5.270;2022-11-04T00:57:18;19.70;81.10
60287;DHT22;46141;52.382;5.270;2022-11-04T00:59:43;19.70;81.20
60287;DHT22;46141;52.382;5.270;2022-11-04T01:02:09;19.70;81.20
60287;DHT22;46141;52.382;5.270;2022-11-04T01:04:35;19.70;81.30
60287;DHT22;46141;52.382;5.270;2022-11-04T01:07:02;19.70;81.20
60287;DHT22;46141;52.382;5.270;2022-11-04T01:09:27;19.70;81.20
60287;DHT22;46141;52.382;5.270;2022-11-04T01:11:53;19.70;81.10
60287;DHT22;46141;52.382;5.270;2022-11-04T01:14:19;19.70;81.20
60287;DHT22;46141;52.382;5.270;2022-11-04T01:16:45;19.70;81.10
60287;DHT22;46141;52.382;5.270;2022-11-04T01:19:11;19.70;81.10
60287;DHT22;46141;52.382;5.270;2022-11-04T01:21:37;19.60;81.10
60287;DHT22;46141;52.382;5.270;2022-11-04T01:24:03;19.70;81.10
60287;DHT22;46141;52.382;5.270;2022-11-04T01:26:29;19.60;81.10
60287;DHT22;46141;52.382;5.270;2022-11-04T01:28:56;19.60;81.80
60287;DHT22;46141;52.382;5.270;2022-11-04T01:31:25;19.70;81.20
60287;DHT22;46141;52.382;5.270;2022-11-04T01:33:52;19.60;81.30
60287;DHT22;46141;52.382;5.270;2022-11-04T01:36:19;19.60;81.20
60287;DHT22;46141;52.382;5.270;2022-11-04T01:38:45;19.60;81.30
60287;DHT22;46141;52.382;5.270;2022-11-04T01:41:29;19.60;81.30
60287;DHT22;46141;52.382;5.270;2022-11-04T01:44:01;19.60;81.30
60287;DHT22;46141;52.382;5.270;2022-11-04T01:46:38;19.60;81.40
60287;DHT22;46141;52.382;5.270;2022-11-04T01:51:46;19.60;81.40
60287;DHT22;46141;52.382;5.270;2022-11-04T01:54:13;19.60;81.40
60287;DHT22;46141;52.382;5.270;2022-11-04T01:56:41;19.60;81.30
60287;DHT22;46141;52.382;5.270;2022-11-04T01:59:15;19.60;81.40
60287;DHT22;46141;52.382;5.270;2022-11-04T02:01:43;19.60;81.30
60287;DHT22;46141;52.382;5.270;2022-11-04T02:04:10;19.60;81.30
60287;DHT22;46141;52.382;5.270;2022-11-04T02:06:36;19.60;81.40
60287;DHT22;46141;52.382;5.270;2022-11-04T02:09:02;19.50;81.30
60287;DHT22;46141;52.382;5.270;2022-11-04T02:11:30;19.60;81.40
60287;DHT22;46141;52.382;5.270;2022-11-04T02:13:56;19.50;81.40
60287;DHT22;46141;52.382;5.270;2022-11-04T02:16:24;19.60;81.40
60287;DHT22;46141;52.382;5.270;2022-11-04T02:18:57;19.50;81.30
60287;DHT22;46141;52.382;5.270;2022-11-04T02:30:14;19.50;81.40
60287;DHT22;46141;52.382;5.270;2022-11-04T02:35:39;19.50;81.30
60287;DHT22;46141;52.382;5.270;2022-11-04T02:38:20;19.50;81.40
60287;DHT22;46141;52.382;5.270;2022-11-04T02:41:07;19.50;81.40
60287;DHT22;46141;52.382;5.270;2022-11-04T02:46:25;19.50;81.40
60287;DHT22;46141;52.382;5.270;2022-11-04T02:49:13;19.50;81.40
60287;DHT22;46141;52.382;5.270;2022-11-04T02:51:49;19.50;81.30
60287;DHT22;46141;52.382;5.270;2022-11-04T02:54:21;19.50;81.30
60287;DHT22;46141;52.382;5.270;2022-11-04T02:56:50;19.40;81.20
60287;DHT22;46141;52.382;5.270;2022-11-04T02:59:44;19.40;81.20
60287;DHT22;46141;52.382;5.270;2022-11-04T03:02:17;19.40;81.30
60287;DHT22;46141;52.382;5.270;2022-11-04T03:04:48;19.40;81.30
60287;DHT22;46141;52.382;5.270;2022-11-04T03:07:23;19.40;81.20
60287;DHT22;46141;52.382;5.270;2022-11-04T03:09:55;19.40;81.20
60287;DHT22;46141;52.382;5.270;2022-11-04T03:12:29;19.40;81.20
60287;DHT22;46141;52.382;5.270;2022-11-04T03:15:02;19.40;81.30
60287;DHT22;46141;52.382;5.270;2022-11-04T03:17:43;19.40;81.90
60287;DHT22;46141;52.382;5.270;2022-11-04T03:20:24;19.40;81.30
60287;DHT22;46141;52.382;5.270;2022-11-04T03:22:51;19.40;81.30
60287;DHT22;46141;52.382;5.270;2022-11-04T03:25:16;19.40;81.30
60287;DHT22;46141;52.382;5.270;2022-11-04T03:28:00;19.30;81.20
60287;DHT22;46141;52.382;5.270;2022-11-04T03:30:41;19.30;81.30
60287;DHT22;46141;52.382;5.270;2022-11-04T03:33:14;19.30;81.20
60287;DHT22;46141;52.382;5.270;2022-11-04T03:35:41;19.30;81.20
60287;DHT22;46141;52.382;5.270;2022-11-04T03:38:07;19.30;81.30
60287;DHT22;46141;52.382;5.270;2022-11-04T03:40:32;19.30;81.20
60287;DHT22;46141;52.382;5.270;2022-11-04T03:45:32;19.30;81.20
60287;DHT22;46141;52.382;5.270;2022-11-04T03:47:59;19.30;81.20
60287;DHT22;46141;52.382;5.270;2022-11-04T03:50:29;19.30;81.20
60287;DHT22;46141;52.382;5.270;2022-11-04T03:52:57;19.20;81.20
60287;DHT22;46141;52.382;5.270;2022-11-04T03:58:43;19.20;81.10
60287;DHT22;46141;52.382;5.270;2022-11-04T04:04:21;19.20;81.00
60287;DHT22;46141;52.382;5.270;2022-11-04T04:06:45;19.20;81.10
60287;DHT22;46141;52.382;5.270;2022-11-04T04:09:24;19.20;81.70
60287;DHT22;46141;52.382;5.270;2022-11-04T04:12:04;19.20;81.00
60287;DHT22;46141;52.382;5.270;2022-11-04T04:14:40;19.20;81.00
60287;DHT22;46141;52.382;5.270;2022-11-04T04:17:35;19.20;81.10
60287;DHT22;46141;52.382;5.270;2022-11-04T04:20:03;19.20;81.00
60287;DHT22;46141;52.382;5.270;2022-11-04T04:22:46;19.10;81.00
60287;DHT22;46141;52.382;5.270;2022-11-04T04:25:15;19.10;81.00
60287;DHT22;46141;52.382;5.270;2022-11-04T04:27:44;19.10;80.90
60287;DHT22;46141;52.382;5.270;2022-11-04T04:30:13;19.10;81.00
60287;DHT22;46141;52.382;5.270;2022-11-04T04:32:49;19.10;81.00
60287;DHT22;46141;52.382;5.270;2022-11-04T04:35:16;19.10;80.90
60287;DHT22;46141;52.382;5.270;2022-11-04T04:37:43;19.10;80.90
60287;DHT22;46141;52.382;5.270;2022-11-04T04:40:16;19.00;80.90
60287;DHT22;46141;52.382;5.270;2022-11-04T04:42:44;19.00;80.90
60287;DHT22;46141;52.382;5.270;2022-11-04T04:45:20;19.00;80.80
60287;DHT22;46141;52.382;5.270;2022-11-04T04:47:47;19.10;80.90
60287;DHT22;46141;52.382;5.270;2022-11-04T04:50:15;19.00;80.90
60287;DHT22;46141;52.382;5.270;2022-11-04T04:52:44;19.00;80.90
60287;DHT22;46141;52.382;5.270;2022-11-04T04:55:12;19.00;80.90
60287;DHT22;46141;52.382;5.270;2022-11-04T04:57:38;19.00;80.90
60287;DHT22;46141;52.382;5.270;2022-11-04T05:00:06;19.00;80.80
60287;DHT22;46141;52.382;5.270;2022-11-04T05:02:31;19.00;80.80
60287;DHT22;46141;52.382;5.270;2022-11-04T05:04:57;19.00;80.80
60287;DHT22;46141;52.382;5.270;2022-11-04T05:07:22;19.00;80.80
60287;DHT22;46141;52.382;5.270;2022-11-04T05:09:48;19.00;80.80
60287;DHT22;46141;52.382;5.270;2022-11-04T05:12:13;19.00;80.80
60287;DHT22;46141;52.382;5.270;2022-11-04T05:14:39;19.00;80.70
60287;DHT22;46141;52.382;5.270;2022-11-04T05:17:05;18.90;80.70
60287;DHT22;46141;52.382;5.270;2022-11-04T05:19:30;18.90;80.70
60287;DHT22;46141;52.382;5.270;2022-11-04T05:21:56;18.90;80.70
60287;DHT22;46141;52.382;5.270;2022-11-04T05:24:21;18.90;80.70
60287;DHT22;46141;52.382;5.270;2022-11-04T05:26:47;18.90;80.70
60287;DHT22;46141;52.382;5.270;2022-11-04T05:29:12;18.90;80.60
60287;DHT22;46141;52.382;5.270;2022-11-04T05:31:38;18.90;80.70
60287;DHT22;46141;52.382;5.270;2022-11-04T05:34:04;18.90;80.70
60287;DHT22;46141;52.382;5.270;2022-11-04T05:36:29;18.90;80.70
60287;DHT22;46141;52.382;5.270;2022-11-04T05:38:55;18.90;80.60
60287;DHT22;46141;52.382;5.270;2022-11-04T05:41:21;18.90;80.70
60287;DHT22;46141;52.382;5.270;2022-11-04T05:43:46;18.90;80.70
60287;DHT22;46141;52.382;5.270;2022-11-04T05:46:12;18.90;80.60
60287;DHT22;46141;52.382;5.270;2022-11-04T05:48:37;18.90;80.60
60287;DHT22;46141;52.382;5.270;2022-11-04T05:51:03;18.80;80.60
60287;DHT22;46141;52.382;5.270;2022-11-04T05:53:28;18.80;80.60
60287;DHT22;46141;52.382;5.270;2022-11-04T05:55:54;18.80;80.60
60287;DHT22;46141;52.382;5.270;2022-11-04T05:58:19;18.80;80.60
60287;DHT22;46141;52.382;5.270;2022-11-04T06:00:45;18.80;80.70
60287;DHT22;46141;52.382;5.270;2022-11-04T06:03:10;18.80;80.60
60287;DHT22;46141;52.382;5.270;2022-11-04T06:05:36;18.80;80.60
60287;DHT22;46141;52.382;5.270;2022-11-04T06:08:01;18.80;80.60
60287;DHT22;46141;52.382;5.270;2022-11-04T06:10:30;18.80;80.60
60287;DHT22;46141;52.382;5.270;2022-11-04T06:12:56;18.80;80.50
60287;DHT22;46141;52.382;5.270;2022-11-04T06:15:22;18.80;80.50
60287;DHT22;46141;52.382;5.270;2022-11-04T06:17:47;18.80;80.50
60287;DHT22;46141;52.382;5.270;2022-11-04T06:20:13;18.80;80.50
60287;DHT22;46141;52.382;5.270;2022-11-04T06:22:38;18.80;80.50
60287;DHT22;46141;52.382;5.270;2022-11-04T06:25:04;18.80;80.50
60287;DHT22;46141;52.382;5.270;2022-11-04T06:27:29;18.80;80.50
60287;DHT22;46141;52.382;5.270;2022-11-04T06:29:55;18.70;80.50
60287;DHT22;46141;52.382;5.270;2022-11-04T06:32:20;18.70;80.50
60287;DHT22;46141;52.382;5.270;2022-11-04T06:34:46;18.80;80.50
60287;DHT22;46141;52.382;5.270;2022-11-04T06:37:12;18.70;80.50
60287;DHT22;46141;52.382;5.270;2022-11-04T06:39:37;18.70;80.50
60287;DHT22;46141;52.382;5.270;2022-11-04T06:42:03;18.70;80.40
60287;DHT22;46141;52.382;5.270;2022-11-04T06:44:29;18.70;80.30
60287;DHT22;46141;52.382;5.270;2022-11-04T06:46:55;18.70;80.30
60287;DHT22;46141;52.382;5.270;2022-11-04T06:49:21;18.70;80.30
60287;DHT22;46141;52.382;5.270;2022-11-04T06:51:47;18.70;80.50
60287;DHT22;46141;52.382;5.270;2022-11-04T06:54:13;18.70;80.20
60287;DHT22;46141;52.382;5.270;2022-11-04T06:56:39;18.70;80.10
60287;DHT22;46141;52.382;5.270;2022-11-04T06:59:04;18.70;80.20
60287;DHT22;46141;52.382;5.270;2022-11-04T07:01:33;18.70;80.30
60287;DHT22;46141;52.382;5.270;2022-11-04T07:04:04;18.70;80.30
60287;DHT22;46141;52.382;5.270;2022-11-04T07:06:30;18.70;80.20
60287;DHT22;46141;52.382;5.270;2022-11-04T07:08:59;18.70;80.00
60287;DHT22;46141;52.382;5.270;2022-11-04T07:11:27;18.80;79.90
60287;DHT22;46141;52.382;5.270;2022-11-04T07:13:53;18.80;79.80
60287;DHT22;46141;52.382;5.270;2022-11-04T07:16:19;18.80;79.70
60287;DHT22;46141;52.382;5.270;2022-11-04T07:18:45;18.90;79.60
60287;DHT22;46141;52.382;5.270;2022-11-04T07:21:13;18.90;79.60
60287;DHT22;46141;52.382;5.270;2022-11-04T07:23:39;18.90;79.60
60287;DHT22;46141;52.382;5.270;2022-11-04T07:26:07;19.00;79.60
60287;DHT22;46141;52.382;5.270;2022-11-04T07:28:35;19.00;79.70
60287;DHT22;46141;52.382;5.270;2022-11-04T07:31:02;19.10;79.70
60287;DHT22;46141;52.382;5.270;2022-11-04T07:33:34;19.10;79.70
60287;DHT22;46141;52.382;5.270;2022-11-04T07:36:05;19.10;79.80
60287;DHT22;46141;52.382;5.270;2022-11-04T07:38:31;19.10;79.70
60287;DHT22;46141;52.382;5.270;2022-11-04T07:41:02;19.10;79.80
60287;DHT22;46141;52.382;5.270;2022-11-04T07:43:30;19.20;79.10
60287;DHT22;46141;52.382;5.270;2022-11-04T07:46:05;19.20;79.30
60287;DHT22;46141;52.382;5.270;2022-11-04T07:48:31;19.20;79.50
60287;DHT22;46141;52.382;5.270;2022-11-04T07:51:00;19.30;79.60
60287;DHT22;46141;52.382;5.270;2022-11-04T07:53:30;19.30;79.70
60287;DHT22;46141;52.382;5.270;2022-11-04T07:55:56;19.30;79.80
60287;DHT22;46141;52.382;5.270;2022-11-04T07:58:25;19.40;79.90
60287;DHT22;46141;52.382;5.270;2022-11-04T08:01:04;19.40;80.00
60287;DHT22;46141;52.382;5.270;2022-11-04T08:03:30;19.40;80.20
60287;DHT22;46141;52.382;5.270;2022-11-04T08:05:59;19.40;80.20
60287;DHT22;46141;52.382;5.270;2022-11-04T08:08:26;19.50;80.30
60287;DHT22;46141;52.382;5.270;2022-11-04T08:10:54;19.50;79.10
60287;DHT22;46141;52.382;5.270;2022-11-04T08:13:20;19.50;78.30
60287;DHT22;46141;52.382;5.270;2022-11-04T08:15:46;19.50;78.00
60287;DHT22;46141;52.382;5.270;2022-11-04T08:18:11;19.50;78.00
60287;DHT22;46141;52.382;5.270;2022-11-04T08:20:37;19.60;77.80
60287;DHT22;46141;52.382;5.270;2022-11-04T08:23:02;19.60;77.70
60287;DHT22;46141;52.382;5.270;2022-11-04T08:25:28;19.60;77.80
60287;DHT22;46141;52.382;5.270;2022-11-04T08:27:53;19.60;77.50
60287;DHT22;46141;52.382;5.270;2022-11-04T08:30:19;19.60;77.30
60287;DHT22;46141;52.382;5.270;2022-11-04T08:32:45;19.60;77.10
60287;DHT22;46141;52.382;5.270;2022-11-04T08:35:10;19.60;77.10
60287;DHT22;46141;52.382;5.270;2022-11-04T08:37:36;19.60;77.10
60287;DHT22;46141;52.382;5.270;2022-11-04T08:40:02;19.70;77.00
60287;DHT22;46141;52.382;5.270;2022-11-04T08:42:28;19.60;76.80
60287;DHT22;46141;52.382;5.270;2022-11-04T08:44:54;19.70;76.90
60287;DHT22;46141;52.382;5.270;2022-11-04T08:47:19;19.70;76.90
60287;DHT22;46141;52.382;5.270;2022-11-04T08:49:45;19.70;76.70
60287;DHT22;46141;52.382;5.270;2022-11-04T08:52:10;19.70;76.70
60287;DHT22;46141;52.382;5.270;2022-11-04T08:55:05;19.70;76.50
60287;DHT22;46141;52.382;5.270;2022-11-04T08:57:31;19.70;77.00
60287;DHT22;46141;52.382;5.270;2022-11-04T08:59:57;19.70;77.10
60287;DHT22;46141;52.382;5.270;2022-11-04T09:02:22;19.80;77.30
60287;DHT22;46141;52.382;5.270;2022-11-04T09:04:48;19.80;77.30
60287;DHT22;46141;52.382;5.270;2022-11-04T09:07:13;19.80;77.20
60287;DHT22;46141;52.382;5.270;2022-11-04T09:09:40;19.80;77.40
60287;DHT22;46141;52.382;5.270;2022-11-04T09:12:09;19.80;77.60
60287;DHT22;46141;52.382;5.270;2022-11-04T09:14:35;19.80;77.70
60287;DHT22;46141;52.382;5.270;2022-11-04T09:17:00;19.90;77.90
60287;DHT22;46141;52.382;5.270;2022-11-04T09:19:26;19.90;77.90
60287;DHT22;46141;52.382;5.270;2022-11-04T09:21:51;19.90;78.00
60287;DHT22;46141;52.382;5.270;2022-11-04T09:24:17;19.90;78.00
60287;DHT22;46141;52.382;5.270;2022-11-04T09:26:42;19.90;78.20
60287;DHT22;46141;52.382;5.270;2022-11-04T09:29:08;19.90;78.30
60287;DHT22;46141;52.382;5.270;2022-11-04T09:31:37;19.90;78.30
60287;DHT22;46141;52.382;5.270;2022-11-04T09:34:03;20.00;78.40
60287;DHT22;46141;52.382;5.270;2022-11-04T09:36:28;20.00;78.60
60287;DHT22;46141;52.382;5.270;2022-11-04T09:38:54;19.90;78.70
60287;DHT22;46141;52.382;5.270;2022-11-04T09:44:16;20.00;78.70
60287;DHT22;46141;52.382;5.270;2022-11-04T09:46:45;20.00;78.90
60287;DHT22;46141;52.382;5.270;2022-11-04T09:49:12;20.00;78.70
60287;DHT22;46141;52.382;5.270;2022-11-04T09:51:40;20.00;77.90
60287;DHT22;46141;52.382;5.270;2022-11-04T09:54:32;20.00;77.30
60287;DHT22;46141;52.382;5.270;2022-11-04T09:57:00;20.00;77.00
60287;DHT22;46141;52.382;5.270;2022-11-04T09:59:32;20.00;76.90
60287;DHT22;46141;52.382;5.270;2022-11-04T10:02:23;20.00;76.80
60287;DHT22;46141;52.382;5.270;2022-11-04T10:05:04;20.00;76.70
60287;DHT22;46141;52.382;5.270;2022-11-04T10:07:55;20.10;76.70
60287;DHT22;46141;52.382;5.270;2022-11-04T10:11:09;20.10;76.60
60287;DHT22;46141;52.382;5.270;2022-11-04T10:13:26;20.00;76.50
60287;DHT22;46141;52.382;5.270;2022-11-04T10:24:14;20.10;78.30
60287;DHT22;46141;52.382;5.270;2022-11-04T10:27:03;20.10;78.50
60287;DHT22;46141;52.382;5.270;2022-11-04T10:29:51;20.20;78.50
60287;DHT22;46141;52.382;5.270;2022-11-04T10:32:35;20.20;78.60
60287;DHT22;46141;52.382;5.270;2022-11-04T10:37:55;20.20;78.50
60287;DHT22;46141;52.382;5.270;2022-11-04T10:40:28;20.20;78.80
60287;DHT22;46141;52.382;5.270;2022-11-04T10:42:58;20.20;78.30
60287;DHT22;46141;52.382;5.270;2022-11-04T10:49:27;20.30;77.50
60287;DHT22;46141;52.382;5.270;2022-11-04T10:51:28;20.30;78.10
60287;DHT22;46141;52.382;5.270;2022-11-04T10:53:56;20.30;78.00
60287;DHT22;46141;52.382;5.270;2022-11-04T11:01:52;20.40;78.00
60287;DHT22;46141;52.382;5.270;2022-11-04T11:04:30;20.50;77.70
60287;DHT22;46141;52.382;5.270;2022-11-04T11:06:59;20.50;77.60
60287;DHT22;46141;52.382;5.270;2022-11-04T11:09:30;20.50;77.40
60287;DHT22;46141;52.382;5.270;2022-11-04T11:12:01;20.50;77.40
60287;DHT22;46141;52.382;5.270;2022-11-04T11:16:53;20.60;77.40
60287;DHT22;46141;52.382;5.270;2022-11-04T11:19:21;20.60;77.40
60287;DHT22;46141;52.382;5.270;2022-11-04T11:21:53;20.60;77.50
60287;DHT22;46141;52.382;5.270;2022-11-04T11:24:24;20.60;77.70
60287;DHT22;46141;52.382;5.270;2022-11-04T11:26:56;20.60;77.80
60287;DHT22;46141;52.382;5.270;2022-11-04T11:29:29;20.60;78.00
60287;DHT22;46141;52.382;5.270;2022-11-04T11:31:58;20.60;78.50
60287;DHT22;46141;52.382;5.270;2022-11-04T11:34:38;20.60;78.70
60287;DHT22;46141;52.382;5.270;2022-11-04T11:37:03;20.60;79.20
60287;DHT22;46141;52.382;5.270;2022-11-04T11:39:43;20.60;79.40
60287;DHT22;46141;52.382;5.270;2022-11-04T11:42:13;20.60;79.10
60287;DHT22;46141;52.382;5.270;2022-11-04T11:44:44;20.60;78.60
60287;DHT22;46141;52.382;5.270;2022-11-04T11:47:34;20.70;79.00
60287;DHT22;46141;52.382;5.270;2022-11-04T11:50:06;20.70;77.90
60287;DHT22;46141;52.382;5.270;2022-11-04T11:52:40;20.80;77.70
60287;DHT22;46141;52.382;5.270;2022-11-04T11:55:11;20.90;77.60
60287;DHT22;46141;52.382;5.270;2022-11-04T12:00:14;20.90;77.70
60287;DHT22;46141;52.382;5.270;2022-11-04T12:02:45;21.00;77.60
60287;DHT22;46141;52.382;5.270;2022-11-04T12:05:16;21.00;77.60
60287;DHT22;46141;52.382;5.270;2022-11-04T12:08:04;21.00;77.70
60287;DHT22;46141;52.382;5.270;2022-11-04T12:11:14;21.00;78.00
60287;DHT22;46141;52.382;5.270;2022-11-04T12:13:50;20.90;78.40
60287;DHT22;46141;52.382;5.270;2022-11-04T12:16:40;20.90;79.10
60287;DHT22;46141;52.382;5.270;2022-11-04T12:19:19;20.90;79.30
60287;DHT22;46141;52.382;5.270;2022-11-04T12:30:03;20.90;79.50
60287;DHT22;46141;52.382;5.270;2022-11-04T12:37:59;20.90;80.60
60287;DHT22;46141;52.382;5.270;2022-11-04T12:46:31;20.90;80.20
60287;DHT22;46141;52.382;5.270;2022-11-04T12:49:37;20.90;79.70
60287;DHT22;46141;52.382;5.270;2022-11-04T13:00:19;20.90;79.40
60287;DHT22;46141;52.382;5.270;2022-11-04T13:13:38;20.80;79.40
60287;DHT22;46141;52.382;5.270;2022-11-04T13:16:09;20.70;79.30
60287;DHT22;46141;52.382;5.270;2022-11-04T13:18:39;20.80;79.10
60287;DHT22;46141;52.382;5.270;2022-11-04T13:21:10;20.70;78.30
60287;DHT22;46141;52.382;5.270;2022-11-04T13:24:03;20.70;78.70
60287;DHT22;46141;52.382;5.270;2022-11-04T13:26:31;20.70;79.10
60287;DHT22;46141;52.382;5.270;2022-11-04T13:29:15;20.60;79.00
60287;DHT22;46141;52.382;5.270;2022-11-04T13:37:22;20.60;79.20
60287;DHT22;46141;52.382;5.270;2022-11-04T13:40:02;20.60;79.10
60287;DHT22;46141;52.382;5.270;2022-11-04T13:42:41;20.60;79.10
60287;DHT22;46141;52.382;5.270;2022-11-04T13:45:14;20.60;79.30
60287;DHT22;46141;52.382;5.270;2022-11-04T13:47:50;20.60;79.00
60287;DHT22;46141;52.382;5.270;2022-11-04T13:50:35;20.60;78.90
60287;DHT22;46141;52.382;5.270;2022-11-04T13:53:04;20.60;78.90
60287;DHT22;46141;52.382;5.270;2022-11-04T13:55:30;20.60;78.90
60287;DHT22;46141;52.382;5.270;2022-11-04T13:58:00;20.60;79.10
60287;DHT22;46141;52.382;5.270;2022-11-04T14:00:31;20.70;79.20
60287;DHT22;46141;52.382;5.270;2022-11-04T14:21:13;20.70;77.40
60287;DHT22;46141;52.382;5.270;2022-11-04T14:23:42;20.60;76.90
60287;DHT22;46141;52.382;5.270;2022-11-04T14:26:20;20.70;77.70
60287;DHT22;46141;52.382;5.270;2022-11-04T14:28:50;20.60;78.10
60287;DHT22;46141;52.382;5.270;2022-11-04T14:31:53;20.60;79.00
60287;DHT22;46141;52.382;5.270;2022-11-04T14:34:29;20.60;78.50
60287;DHT22;46141;52.382;5.270;2022-11-04T14:37:20;20.60;78.50
60287;DHT22;46141;52.382;5.270;2022-11-04T14:39:54;20.60;78.40
60287;DHT22;46141;52.382;5.270;2022-11-04T14:42:49;20.60;78.50
60287;DHT22;46141;52.382;5.270;2022-11-04T14:45:32;20.50;78.50
60287;DHT22;46141;52.382;5.270;2022-11-04T14:48:17;20.60;78.40
60287;DHT22;46141;52.382;5.270;2022-11-04T14:50:50;20.50;78.40
60287;DHT22;46141;52.382;5.270;2022-11-04T14:53:30;20.50;78.40
60287;DHT22;46141;52.382;5.270;2022-11-04T14:56:16;20.50;78.50
60287;DHT22;46141;52.382;5.270;2022-11-04T15:01:26;20.50;78.50
60287;DHT22;46141;52.382;5.270;2022-11-04T15:03:52;20.50;78.50
60287;DHT22;46141;52.382;5.270;2022-11-04T15:06:27;20.50;78.50
60287;DHT22;46141;52.382;5.270;2022-11-04T15:08:53;20.50;78.50
60287;DHT22;46141;52.382;5.270;2022-11-04T15:11:24;20.50;78.50
60287;DHT22;46141;52.382;5.270;2022-11-04T15:13:56;20.50;78.50
60287;DHT22;46141;52.382;5.270;2022-11-04T15:16:28;20.50;78.60
60287;DHT22;46141;52.382;5.270;2022-11-04T15:18:57;20.40;78.50
60287;DHT22;46141;52.382;5.270;2022-11-04T15:21:24;20.40;78.60
60287;DHT22;46141;52.382;5.270;2022-11-04T15:23:54;20.40;78.60
60287;DHT22;46141;52.382;5.270;2022-11-04T15:26:20;20.40;78.60
60287;DHT22;46141;52.382;5.270;2022-11-04T15:28:48;20.40;78.50
60287;DHT22;46141;52.382;5.270;2022-11-04T15:31:20;20.40;78.50
60287;DHT22;46141;52.382;5.270;2022-11-04T15:33:53;20.40;78.50
60287;DHT22;46141;52.382;5.270;2022-11-04T15:36:27;20.40;78.50
60287;DHT22;46141;52.382;5.270;2022-11-04T15:41:33;20.30;77.70
60287;DHT22;46141;52.382;5.270;2022-11-04T15:44:02;20.30;76.90
60287;DHT22;46141;52.382;5.270;2022-11-04T15:46:28;20.20;76.40
60287;DHT22;46141;52.382;5.270;2022-11-04T15:49:05;20.20;76.70
60287;DHT22;46141;52.382;5.270;2022-11-04T15:51:38;20.20;77.00
60287;DHT22;46141;52.382;5.270;2022-11-04T15:56:47;20.30;77.40
60287;DHT22;46141;52.382;5.270;2022-11-04T15:59:18;20.30;77.30
60287;DHT22;46141;52.382;5.270;2022-11-04T16:01:48;20.30;77.40
60287;DHT22;46141;52.382;5.270;2022-11-04T16:04:15;20.30;77.60
60287;DHT22;46141;52.382;5.270;2022-11-04T16:06:43;20.30;77.70
60287;DHT22;46141;52.382;5.270;2022-11-04T16:11:35;20.20;77.70
60287;DHT22;46141;52.382;5.270;2022-11-04T16:14:20;20.20;77.60
60287;DHT22;46141;52.382;5.270;2022-11-04T16:16:50;20.20;77.80
60287;DHT22;46141;52.382;5.270;2022-11-04T16:19:20;20.20;78.10
60287;DHT22;46141;52.382;5.270;2022-11-04T16:21:46;20.20;78.70
60287;DHT22;46141;52.382;5.270;2022-11-04T16:24:25;20.10;79.00
60287;DHT22;46141;52.382;5.270;2022-11-04T16:26:55;20.00;79.10
60287;DHT22;46141;52.382;5.270;2022-11-04T16:29:25;20.10;79.50
60287;DHT22;46141;52.382;5.270;2022-11-04T16:34:36;20.10;79.70
60287;DHT22;46141;52.382;5.270;2022-11-04T16:37:02;20.10;79.60
60287;DHT22;46141;52.382;5.270;2022-11-04T16:39:27;20.10;79.30
60287;DHT22;46141;52.382;5.270;2022-11-04T16:41:53;20.20;79.40
60287;DHT22;46141;52.382;5.270;2022-11-04T16:44:22;20.20;79.20
60287;DHT22;46141;52.382;5.270;2022-11-04T16:46:48;20.20;79.50
60287;DHT22;46141;52.382;5.270;2022-11-04T16:49:16;20.20;79.40
60287;DHT22;46141;52.382;5.270;2022-11-04T16:51:41;20.30;79.30
60287;DHT22;46141;52.382;5.270;2022-11-04T16:54:07;20.20;79.20
60287;DHT22;46141;52.382;5.270;2022-11-04T16:56:33;20.30;79.30
60287;DHT22;46141;52.382;5.270;2022-11-04T16:58:59;20.30;79.40
60287;DHT22;46141;52.382;5.270;2022-11-04T17:01:24;20.30;79.60
60287;DHT22;46141;52.382;5.270;2022-11-04T17:03:50;20.30;79.90
60287;DHT22;46141;52.382;5.270;2022-11-04T17:06:16;20.30;80.40
60287;DHT22;46141;52.382;5.270;2022-11-04T17:08:42;20.30;80.50
60287;DHT22;46141;52.382;5.270;2022-11-04T17:11:09;20.30;80.70
60287;DHT22;46141;52.382;5.270;2022-11-04T17:13:41;20.30;80.80
60287;DHT22;46141;52.382;5.270;2022-11-04T17:16:09;20.30;80.90
60287;DHT22;46141;52.382;5.270;2022-11-04T17:18:36;20.30;80.90
60287;DHT22;46141;52.382;5.270;2022-11-04T17:21:07;20.40;80.90
60287;DHT22;46141;52.382;5.270;2022-11-04T17:23:33;20.40;80.80
60287;DHT22;46141;52.382;5.270;2022-11-04T17:25:58;20.40;81.50
60287;DHT22;46141;52.382;5.270;2022-11-04T17:28:24;20.40;81.20
60287;DHT22;46141;52.382;5.270;2022-11-04T17:30:49;20.40;81.50
60287;DHT22;46141;52.382;5.270;2022-11-04T17:33:17;20.40;81.50
60287;DHT22;46141;52.382;5.270;2022-11-04T17:35:46;20.40;81.60
60287;DHT22;46141;52.382;5.270;2022-11-04T17:38:12;20.50;81.70
60287;DHT22;46141;52.382;5.270;2022-11-04T17:40:38;20.50;81.70
60287;DHT22;46141;52.382;5.270;2022-11-04T17:43:04;20.40;81.60
60287;DHT22;46141;52.382;5.270;2022-11-04T17:45:31;20.50;81.60
60287;DHT22;46141;52.382;5.270;2022-11-04T17:48:00;20.40;81.70
60287;DHT22;46141;52.382;5.270;2022-11-04T17:50:26;20.40;82.00
60287;DHT22;46141;52.382;5.270;2022-11-04T17:52:52;20.40;80.50
60287;DHT22;46141;52.382;5.270;2022-11-04T17:55:17;20.40;80.20
60287;DHT22;46141;52.382;5.270;2022-11-04T17:57:43;20.40;79.80